This is the latest recevied weather packets stored in our database for station/object LRBC. If no packets are shown the sender has not sent any weather packets the latest 10 day(s).
| Time | Temp. | Humidity | Pressure | Rain* | Wind** | Luminosity | Snow |
|---|---|---|---|---|---|---|---|
| 1777865627 | 3.89° C | 87% | 1017 hPa | - | - | - | - |
| 1777864724 | 6.11° C | 76% | 1016 hPa | - | - | - | - |
| 1777863910 | 6.11° C | 76% | 1016 hPa | - | - | - | - |
| 1777862925 | 6.11° C | 76% | 1017 hPa | - | - | - | - |
| 1777862027 | 6.11° C | 76% | 1017 hPa | - | - | - | - |
| 1777861124 | 5° C | 81% | 1017 hPa | - | - | - | - |
| 1777860228 | 5° C | 81% | 1017 hPa | - | - | - | - |
| 1777859328 | 6.11° C | 71% | 1017 hPa | - | - | - | - |
| 1777858433 | 6.11° C | 71% | 1017 hPa | - | - | - | - |
| 1777857609 | 5° C | 76% | 1017 hPa | - | - | - | - |
| 1777856628 | 5° C | 76% | 1017 hPa | - | - | - | - |
| 1777855809 | 5° C | 76% | 1017 hPa | - | - | - | - |
| 1777854827 | 5° C | 76% | 1017 hPa | - | - | - | - |
| 1777853927 | 5° C | 76% | 1017 hPa | - | - | - | - |
| 1777853028 | 5° C | 76% | 1017 hPa | - | - | - | - |
| 1777852164 | 6.11° C | 76% | 1017 hPa | - | - | - | - |
| 1777851227 | 6.11° C | 76% | 1017 hPa | - | - | - | - |
| 1777850328 | 7.22° C | 71% | 1017 hPa | - | - | - | - |
| 1777849440 | 7.22° C | 71% | 1017 hPa | - | - | - | - |
| 1777848524 | 7.22° C | 76% | 1017 hPa | - | - | - | - |
| 1777847636 | 7.22° C | 76% | 1017 hPa | - | - | - | - |
| 1777846744 | 7.78° C | 71% | 1017 hPa | - | - | - | - |
| 1777845869 | 7.78° C | 71% | 1017 hPa | - | - | - | - |
| 1777844931 | 8.89° C | 62% | 1018 hPa | - | - | - | - |
| 1777844027 | 8.89° C | 62% | 1018 hPa | - | - | - | - |
* Rain since midnight (hover to see other rain measurements)
** Current wind speed in m/s (hover to see current wind gust speed)